sensor_id;sensor_type;location;lat;lon;timestamp;pressure;altitude;pressure_sealevel;temperature;humidity
79705;BME280;69940;53.120;8.764;2023-12-29T00:01:19;100470.00;;;11.79;72.55
79705;BME280;69940;53.120;8.764;2023-12-29T00:03:46;100468.00;;;11.80;72.64
79705;BME280;69940;53.120;8.764;2023-12-29T00:06:16;100467.00;;;11.80;72.70
79705;BME280;69940;53.120;8.764;2023-12-29T00:08:48;100464.00;;;11.80;72.66
79705;BME280;69940;53.120;8.764;2023-12-29T00:11:19;100460.00;;;11.80;72.73
79705;BME280;69940;53.120;8.764;2023-12-29T00:13:46;100461.00;;;11.81;72.65
79705;BME280;69940;53.120;8.764;2023-12-29T00:16:16;100456.00;;;11.81;72.78
79705;BME280;69940;53.120;8.764;2023-12-29T00:18:46;100457.00;;;11.81;72.87
79705;BME280;69940;53.120;8.764;2023-12-29T00:21:16;100456.00;;;11.81;73.03
79705;BME280;69940;53.120;8.764;2023-12-29T00:23:46;100456.00;;;11.81;73.13
79705;BME280;69940;53.120;8.764;2023-12-29T00:26:16;100454.00;;;11.80;73.39
79705;BME280;69940;53.120;8.764;2023-12-29T00:28:46;100454.00;;;11.79;73.65
79705;BME280;69940;53.120;8.764;2023-12-29T00:31:18;100458.00;;;11.78;73.85
79705;BME280;69940;53.120;8.764;2023-12-29T00:33:46;100456.00;;;11.77;73.94
79705;BME280;69940;53.120;8.764;2023-12-29T00:36:17;100456.00;;;11.76;73.99
79705;BME280;69940;53.120;8.764;2023-12-29T00:38:46;100457.00;;;11.75;74.32
79705;BME280;69940;53.120;8.764;2023-12-29T00:41:16;100457.00;;;11.74;74.51
79705;BME280;69940;53.120;8.764;2023-12-29T00:43:46;100458.00;;;11.73;74.53
79705;BME280;69940;53.120;8.764;2023-12-29T00:46:19;100456.00;;;11.72;74.56
79705;BME280;69940;53.120;8.764;2023-12-29T00:48:46;100456.00;;;11.70;74.61
79705;BME280;69940;53.120;8.764;2023-12-29T00:51:16;100451.00;;;11.69;74.70
79705;BME280;69940;53.120;8.764;2023-12-29T00:53:46;100449.00;;;11.68;74.73
79705;BME280;69940;53.120;8.764;2023-12-29T00:56:16;100445.00;;;11.67;74.76
79705;BME280;69940;53.120;8.764;2023-12-29T00:58:46;100444.00;;;11.67;74.84
79705;BME280;69940;53.120;8.764;2023-12-29T01:01:16;100444.00;;;11.66;74.86
79705;BME280;69940;53.120;8.764;2023-12-29T01:03:46;100442.00;;;11.65;74.94
79705;BME280;69940;53.120;8.764;2023-12-29T01:06:16;100445.00;;;11.64;74.87
79705;BME280;69940;53.120;8.764;2023-12-29T01:08:47;100445.00;;;11.64;75.03
79705;BME280;69940;53.120;8.764;2023-12-29T01:11:16;100443.00;;;11.64;75.14
79705;BME280;69940;53.120;8.764;2023-12-29T01:13:46;100441.00;;;11.63;75.36
79705;BME280;69940;53.120;8.764;2023-12-29T01:16:16;100440.00;;;11.63;75.42
79705;BME280;69940;53.120;8.764;2023-12-29T01:18:46;100439.00;;;11.63;75.58
79705;BME280;69940;53.120;8.764;2023-12-29T01:21:16;100438.00;;;11.62;75.75
79705;BME280;69940;53.120;8.764;2023-12-29T01:23:46;100436.00;;;11.61;75.94
79705;BME280;69940;53.120;8.764;2023-12-29T01:26:16;100434.00;;;11.60;76.22
79705;BME280;69940;53.120;8.764;2023-12-29T01:28:46;100435.00;;;11.59;76.40
79705;BME280;69940;53.120;8.764;2023-12-29T01:31:16;100433.00;;;11.58;76.54
79705;BME280;69940;53.120;8.764;2023-12-29T01:33:46;100433.00;;;11.57;76.69
79705;BME280;69940;53.120;8.764;2023-12-29T01:36:18;100433.00;;;11.55;76.72
79705;BME280;69940;53.120;8.764;2023-12-29T01:38:46;100432.00;;;11.53;76.80
79705;BME280;69940;53.120;8.764;2023-12-29T01:41:19;100431.00;;;11.53;76.73
79705;BME280;69940;53.120;8.764;2023-12-29T01:44:18;100429.00;;;11.52;76.60
79705;BME280;69940;53.120;8.764;2023-12-29T01:46:16;100426.00;;;11.52;76.44
79705;BME280;69940;53.120;8.764;2023-12-29T01:48:46;100428.00;;;11.52;76.64
79705;BME280;69940;53.120;8.764;2023-12-29T01:51:17;100426.00;;;11.51;77.43
79705;BME280;69940;53.120;8.764;2023-12-29T01:53:46;100423.00;;;11.48;77.90
79705;BME280;69940;53.120;8.764;2023-12-29T01:56:16;100422.00;;;11.44;78.36
79705;BME280;69940;53.120;8.764;2023-12-29T01:58:48;100421.00;;;11.40;78.66
79705;BME280;69940;53.120;8.764;2023-12-29T02:01:18;100428.00;;;11.34;79.00
79705;BME280;69940;53.120;8.764;2023-12-29T02:03:46;100425.00;;;11.28;78.75
79705;BME280;69940;53.120;8.764;2023-12-29T02:06:17;100423.00;;;11.22;78.59
79705;BME280;69940;53.120;8.764;2023-12-29T02:08:46;100422.00;;;11.18;78.86
79705;BME280;69940;53.120;8.764;2023-12-29T02:11:16;100421.00;;;11.14;79.27
79705;BME280;69940;53.120;8.764;2023-12-29T02:13:46;100420.00;;;11.12;79.82
79705;BME280;69940;53.120;8.764;2023-12-29T02:18:48;100413.00;;;11.06;80.87
79705;BME280;69940;53.120;8.764;2023-12-29T02:21:16;100409.00;;;11.04;81.13
79705;BME280;69940;53.120;8.764;2023-12-29T02:23:46;100407.00;;;11.02;81.26
79705;BME280;69940;53.120;8.764;2023-12-29T02:26:18;100404.00;;;11.00;81.75
79705;BME280;69940;53.120;8.764;2023-12-29T02:28:53;100399.00;;;10.99;82.10
79705;BME280;69940;53.120;8.764;2023-12-29T02:31:20;100396.00;;;10.98;82.33
79705;BME280;69940;53.120;8.764;2023-12-29T02:33:47;100393.00;;;10.97;82.69
79705;BME280;69940;53.120;8.764;2023-12-29T02:36:16;100391.00;;;10.96;82.99
79705;BME280;69940;53.120;8.764;2023-12-29T02:38:46;100393.00;;;10.95;83.14
79705;BME280;69940;53.120;8.764;2023-12-29T02:41:16;100391.00;;;10.94;83.17
79705;BME280;69940;53.120;8.764;2023-12-29T02:43:46;100383.00;;;10.93;83.30
79705;BME280;69940;53.120;8.764;2023-12-29T02:46:17;100378.00;;;10.91;82.95
79705;BME280;69940;53.120;8.764;2023-12-29T02:48:48;100374.00;;;10.91;82.84
79705;BME280;69940;53.120;8.764;2023-12-29T02:51:16;100367.00;;;10.91;82.72
79705;BME280;69940;53.120;8.764;2023-12-29T02:53:46;100359.00;;;10.91;82.74
79705;BME280;69940;53.120;8.764;2023-12-29T02:56:16;100351.00;;;10.91;82.62
79705;BME280;69940;53.120;8.764;2023-12-29T02:58:48;100344.00;;;10.90;82.31
79705;BME280;69940;53.120;8.764;2023-12-29T03:01:16;100337.00;;;10.89;82.15
79705;BME280;69940;53.120;8.764;2023-12-29T03:03:46;100330.00;;;10.90;82.15
79705;BME280;69940;53.120;8.764;2023-12-29T03:06:16;100325.00;;;10.90;82.12
79705;BME280;69940;53.120;8.764;2023-12-29T03:08:46;100324.00;;;10.90;82.27
79705;BME280;69940;53.120;8.764;2023-12-29T03:11:16;100322.00;;;10.89;82.44
79705;BME280;69940;53.120;8.764;2023-12-29T03:13:46;100324.00;;;10.89;82.92
79705;BME280;69940;53.120;8.764;2023-12-29T03:16:16;100323.00;;;10.89;83.18
79705;BME280;69940;53.120;8.764;2023-12-29T03:18:46;100322.00;;;10.88;83.37
79705;BME280;69940;53.120;8.764;2023-12-29T03:21:16;100320.00;;;10.88;83.61
79705;BME280;69940;53.120;8.764;2023-12-29T03:23:46;100320.00;;;10.87;83.86
79705;BME280;69940;53.120;8.764;2023-12-29T03:26:16;100318.00;;;10.87;84.21
79705;BME280;69940;53.120;8.764;2023-12-29T03:28:46;100317.00;;;10.86;84.44
79705;BME280;69940;53.120;8.764;2023-12-29T03:31:16;100320.00;;;10.84;84.52
79705;BME280;69940;53.120;8.764;2023-12-29T03:33:46;100319.00;;;10.82;84.59
79705;BME280;69940;53.120;8.764;2023-12-29T03:36:16;100317.00;;;10.81;84.63
79705;BME280;69940;53.120;8.764;2023-12-29T03:38:46;100314.00;;;10.80;84.54
79705;BME280;69940;53.120;8.764;2023-12-29T03:41:16;100340.00;;;10.79;84.47
79705;BME280;69940;53.120;8.764;2023-12-29T03:43:46;100366.00;;;10.69;77.37
79705;BME280;69940;53.120;8.764;2023-12-29T03:46:20;100388.00;;;10.40;76.65
79705;BME280;69940;53.120;8.764;2023-12-29T03:48:46;100395.00;;;10.04;77.82
79705;BME280;69940;53.120;8.764;2023-12-29T03:51:16;100401.00;;;9.68;78.83
79705;BME280;69940;53.120;8.764;2023-12-29T03:53:46;100398.00;;;9.37;79.60
79705;BME280;69940;53.120;8.764;2023-12-29T03:56:18;100397.00;;;9.12;80.15
79705;BME280;69940;53.120;8.764;2023-12-29T03:58:46;100393.00;;;8.92;80.26
79705;BME280;69940;53.120;8.764;2023-12-29T04:01:17;100381.00;;;8.78;80.63
79705;BME280;69940;53.120;8.764;2023-12-29T04:03:46;100372.00;;;8.69;80.88
79705;BME280;69940;53.120;8.764;2023-12-29T04:06:16;100369.00;;;8.64;81.20
79705;BME280;69940;53.120;8.764;2023-12-29T04:08:46;100365.00;;;8.63;81.13
79705;BME280;69940;53.120;8.764;2023-12-29T04:11:16;100364.00;;;8.62;81.24
79705;BME280;69940;53.120;8.764;2023-12-29T04:13:46;100356.00;;;8.63;81.43
79705;BME280;69940;53.120;8.764;2023-12-29T04:16:17;100355.00;;;8.65;81.68
79705;BME280;69940;53.120;8.764;2023-12-29T04:18:46;100349.00;;;8.67;81.52
79705;BME280;69940;53.120;8.764;2023-12-29T04:21:16;100343.00;;;8.70;81.56
79705;BME280;69940;53.120;8.764;2023-12-29T04:23:46;100341.00;;;8.74;81.59
79705;BME280;69940;53.120;8.764;2023-12-29T04:26:16;100338.00;;;8.77;81.96
79705;BME280;69940;53.120;8.764;2023-12-29T04:28:46;100336.00;;;8.81;82.10
79705;BME280;69940;53.120;8.764;2023-12-29T04:31:16;100334.00;;;8.85;82.19
79705;BME280;69940;53.120;8.764;2023-12-29T04:33:46;100333.00;;;8.88;82.22
79705;BME280;69940;53.120;8.764;2023-12-29T04:36:16;100334.00;;;8.92;82.32
79705;BME280;69940;53.120;8.764;2023-12-29T04:38:46;100331.00;;;8.96;82.52
79705;BME280;69940;53.120;8.764;2023-12-29T04:41:16;100329.00;;;9.00;82.49
79705;BME280;69940;53.120;8.764;2023-12-29T04:43:46;100331.00;;;9.05;82.67
79705;BME280;69940;53.120;8.764;2023-12-29T04:46:16;100330.00;;;9.12;82.77
79705;BME280;69940;53.120;8.764;2023-12-29T04:48:46;100326.00;;;9.20;82.74
79705;BME280;69940;53.120;8.764;2023-12-29T04:51:16;100326.00;;;9.27;82.67
79705;BME280;69940;53.120;8.764;2023-12-29T04:53:46;100328.00;;;9.34;82.74
79705;BME280;69940;53.120;8.764;2023-12-29T04:56:16;100330.00;;;9.41;82.61
79705;BME280;69940;53.120;8.764;2023-12-29T04:58:46;100329.00;;;9.49;82.71
79705;BME280;69940;53.120;8.764;2023-12-29T05:01:16;100328.00;;;9.59;82.83
79705;BME280;69940;53.120;8.764;2023-12-29T05:03:46;100328.00;;;9.70;83.07
79705;BME280;69940;53.120;8.764;2023-12-29T05:06:16;100326.00;;;9.82;82.96
79705;BME280;69940;53.120;8.764;2023-12-29T05:08:46;100325.00;;;9.94;82.84
79705;BME280;69940;53.120;8.764;2023-12-29T05:11:16;100323.00;;;10.05;82.84
79705;BME280;69940;53.120;8.764;2023-12-29T05:13:46;100323.00;;;10.16;82.41
79705;BME280;69940;53.120;8.764;2023-12-29T05:16:16;100323.00;;;10.25;82.08
79705;BME280;69940;53.120;8.764;2023-12-29T05:18:46;100322.00;;;10.34;81.89
79705;BME280;69940;53.120;8.764;2023-12-29T05:21:17;100320.00;;;10.42;81.84
79705;BME280;69940;53.120;8.764;2023-12-29T05:23:47;100321.00;;;10.48;81.69
79705;BME280;69940;53.120;8.764;2023-12-29T05:26:16;100321.00;;;10.53;81.63
79705;BME280;69940;53.120;8.764;2023-12-29T05:28:46;100320.00;;;10.57;81.49
79705;BME280;69940;53.120;8.764;2023-12-29T05:31:16;100320.00;;;10.60;81.52
79705;BME280;69940;53.120;8.764;2023-12-29T05:33:46;100321.00;;;10.62;81.48
79705;BME280;69940;53.120;8.764;2023-12-29T05:36:16;100319.00;;;10.64;81.37
79705;BME280;69940;53.120;8.764;2023-12-29T05:38:47;100319.00;;;10.65;81.17
79705;BME280;69940;53.120;8.764;2023-12-29T05:41:16;100319.00;;;10.66;80.81
79705;BME280;69940;53.120;8.764;2023-12-29T05:43:46;100322.00;;;10.67;80.84
79705;BME280;69940;53.120;8.764;2023-12-29T05:46:16;100326.00;;;10.67;80.90
79705;BME280;69940;53.120;8.764;2023-12-29T05:48:46;100328.00;;;10.68;80.89
79705;BME280;69940;53.120;8.764;2023-12-29T05:51:16;100332.00;;;10.69;80.86
79705;BME280;69940;53.120;8.764;2023-12-29T05:53:46;100339.00;;;10.70;80.74
79705;BME280;69940;53.120;8.764;2023-12-29T05:56:16;100342.00;;;10.71;80.72
79705;BME280;69940;53.120;8.764;2023-12-29T05:58:46;100345.00;;;10.72;80.67
79705;BME280;69940;53.120;8.764;2023-12-29T06:01:16;100346.00;;;10.73;80.60
79705;BME280;69940;53.120;8.764;2023-12-29T06:03:46;100351.00;;;10.73;80.54
79705;BME280;69940;53.120;8.764;2023-12-29T06:06:16;100354.00;;;10.73;80.19
79705;BME280;69940;53.120;8.764;2023-12-29T06:08:46;100358.00;;;10.73;80.31
79705;BME280;69940;53.120;8.764;2023-12-29T06:11:17;100366.00;;;10.73;80.14
79705;BME280;69940;53.120;8.764;2023-12-29T06:13:46;100372.00;;;10.73;80.12
79705;BME280;69940;53.120;8.764;2023-12-29T06:16:22;100380.00;;;10.73;80.17
79705;BME280;69940;53.120;8.764;2023-12-29T06:18:46;100383.00;;;10.72;79.88
79705;BME280;69940;53.120;8.764;2023-12-29T06:21:16;100386.00;;;10.72;79.56
79705;BME280;69940;53.120;8.764;2023-12-29T06:23:47;100386.00;;;10.72;79.27
79705;BME280;69940;53.120;8.764;2023-12-29T06:26:17;100384.00;;;10.72;79.06
79705;BME280;69940;53.120;8.764;2023-12-29T06:28:47;100380.00;;;10.72;78.65
79705;BME280;69940;53.120;8.764;2023-12-29T06:31:17;100381.00;;;10.72;78.63
79705;BME280;69940;53.120;8.764;2023-12-29T06:33:46;100377.00;;;10.72;78.52
79705;BME280;69940;53.120;8.764;2023-12-29T06:36:16;100373.00;;;10.72;78.37
79705;BME280;69940;53.120;8.764;2023-12-29T06:38:51;100369.00;;;10.72;78.25
79705;BME280;69940;53.120;8.764;2023-12-29T06:41:16;100368.00;;;10.72;77.47
79705;BME280;69940;53.120;8.764;2023-12-29T06:43:46;100367.00;;;10.72;77.08
79705;BME280;69940;53.120;8.764;2023-12-29T06:46:16;100366.00;;;10.72;76.79
79705;BME280;69940;53.120;8.764;2023-12-29T06:48:46;100367.00;;;10.72;76.75
79705;BME280;69940;53.120;8.764;2023-12-29T06:51:19;100368.00;;;10.73;76.65
79705;BME280;69940;53.120;8.764;2023-12-29T06:53:46;100368.00;;;10.73;76.28
79705;BME280;69940;53.120;8.764;2023-12-29T06:56:16;100368.00;;;10.74;76.33
79705;BME280;69940;53.120;8.764;2023-12-29T06:58:46;100371.00;;;10.74;75.98
79705;BME280;69940;53.120;8.764;2023-12-29T07:01:16;100370.00;;;10.75;76.06
79705;BME280;69940;53.120;8.764;2023-12-29T07:03:46;100373.00;;;10.76;75.60
79705;BME280;69940;53.120;8.764;2023-12-29T07:06:16;100369.00;;;10.77;75.34
79705;BME280;69940;53.120;8.764;2023-12-29T07:08:47;100370.00;;;10.78;75.36
79705;BME280;69940;53.120;8.764;2023-12-29T07:11:16;100373.00;;;10.79;75.30
79705;BME280;69940;53.120;8.764;2023-12-29T07:13:46;100374.00;;;10.80;75.35
79705;BME280;69940;53.120;8.764;2023-12-29T07:16:16;100374.00;;;10.80;75.33
79705;BME280;69940;53.120;8.764;2023-12-29T07:18:47;100376.00;;;10.80;75.26
79705;BME280;69940;53.120;8.764;2023-12-29T07:21:17;100377.00;;;10.80;75.48
79705;BME280;69940;53.120;8.764;2023-12-29T07:23:46;100380.00;;;10.80;75.79
79705;BME280;69940;53.120;8.764;2023-12-29T07:26:16;100383.00;;;10.81;76.02
79705;BME280;69940;53.120;8.764;2023-12-29T07:28:46;100384.00;;;10.80;76.38
79705;BME280;69940;53.120;8.764;2023-12-29T07:31:16;100385.00;;;10.79;76.76
79705;BME280;69940;53.120;8.764;2023-12-29T07:33:46;100386.00;;;10.79;76.98
79705;BME280;69940;53.120;8.764;2023-12-29T07:36:16;100382.00;;;10.79;77.24
79705;BME280;69940;53.120;8.764;2023-12-29T07:38:46;100378.00;;;10.79;77.50
79705;BME280;69940;53.120;8.764;2023-12-29T07:41:16;100375.00;;;10.78;77.64
79705;BME280;69940;53.120;8.764;2023-12-29T07:43:46;100374.00;;;10.78;77.59
79705;BME280;69940;53.120;8.764;2023-12-29T07:46:25;100374.00;;;10.77;77.74
79705;BME280;69940;53.120;8.764;2023-12-29T07:48:46;100378.00;;;10.75;77.89
79705;BME280;69940;53.120;8.764;2023-12-29T07:51:16;100380.00;;;10.74;78.02
79705;BME280;69940;53.120;8.764;2023-12-29T07:53:46;100378.00;;;10.73;77.93
79705;BME280;69940;53.120;8.764;2023-12-29T07:56:16;100375.00;;;10.73;77.87
79705;BME280;69940;53.120;8.764;2023-12-29T07:58:45;100372.00;;;10.73;77.84
79705;BME280;69940;53.120;8.764;2023-12-29T08:01:16;100367.00;;;10.73;77.82
79705;BME280;69940;53.120;8.764;2023-12-29T08:03:46;100365.00;;;10.73;77.85
79705;BME280;69940;53.120;8.764;2023-12-29T08:06:16;100363.00;;;10.74;77.75
79705;BME280;69940;53.120;8.764;2023-12-29T08:08:46;100363.00;;;10.75;77.49
79705;BME280;69940;53.120;8.764;2023-12-29T08:11:17;100363.00;;;10.75;77.18
79705;BME280;69940;53.120;8.764;2023-12-29T08:13:48;100365.00;;;10.76;77.09
79705;BME280;69940;53.120;8.764;2023-12-29T08:16:19;100366.00;;;10.76;76.07
79705;BME280;69940;53.120;8.764;2023-12-29T08:18:49;100368.00;;;10.76;75.67
79705;BME280;69940;53.120;8.764;2023-12-29T08:21:16;100371.00;;;10.77;75.94
79705;BME280;69940;53.120;8.764;2023-12-29T08:23:46;100374.00;;;10.76;76.61
79705;BME280;69940;53.120;8.764;2023-12-29T08:26:16;100376.00;;;10.76;77.36
79705;BME280;69940;53.120;8.764;2023-12-29T08:28:46;100380.00;;;10.75;77.94
79705;BME280;69940;53.120;8.764;2023-12-29T08:31:18;100380.00;;;10.74;78.59
79705;BME280;69940;53.120;8.764;2023-12-29T08:33:46;100379.00;;;10.74;79.39
79705;BME280;69940;53.120;8.764;2023-12-29T08:36:19;100377.00;;;10.73;79.82
79705;BME280;69940;53.120;8.764;2023-12-29T08:38:46;100373.00;;;10.72;80.13
79705;BME280;69940;53.120;8.764;2023-12-29T08:41:16;100372.00;;;10.71;80.40
79705;BME280;69940;53.120;8.764;2023-12-29T08:43:46;100373.00;;;10.71;80.57
79705;BME280;69940;53.120;8.764;2023-12-29T08:46:16;100373.00;;;10.70;80.51
79705;BME280;69940;53.120;8.764;2023-12-29T08:48:46;100371.00;;;10.70;80.22
79705;BME280;69940;53.120;8.764;2023-12-29T08:51:16;100372.00;;;10.70;79.90
79705;BME280;69940;53.120;8.764;2023-12-29T08:53:46;100377.00;;;10.70;79.70
79705;BME280;69940;53.120;8.764;2023-12-29T08:56:16;100381.00;;;10.69;79.54
79705;BME280;69940;53.120;8.764;2023-12-29T08:58:46;100387.00;;;10.65;80.05
79705;BME280;69940;53.120;8.764;2023-12-29T09:01:16;100392.00;;;10.60;80.31
79705;BME280;69940;53.120;8.764;2023-12-29T09:03:46;100396.00;;;10.53;80.56
79705;BME280;69940;53.120;8.764;2023-12-29T09:06:16;100396.00;;;10.47;80.54
79705;BME280;69940;53.120;8.764;2023-12-29T09:08:46;100394.00;;;10.43;80.49
79705;BME280;69940;53.120;8.764;2023-12-29T09:11:16;100395.00;;;10.39;80.38
79705;BME280;69940;53.120;8.764;2023-12-29T09:13:46;100393.00;;;10.37;80.39
79705;BME280;69940;53.120;8.764;2023-12-29T09:16:16;100399.00;;;10.36;80.40
79705;BME280;69940;53.120;8.764;2023-12-29T09:18:46;100402.00;;;10.35;80.54
79705;BME280;69940;53.120;8.764;2023-12-29T09:21:16;100408.00;;;10.35;80.54
79705;BME280;69940;53.120;8.764;2023-12-29T09:23:46;100409.00;;;10.34;80.60
79705;BME280;69940;53.120;8.764;2023-12-29T09:26:16;100410.00;;;10.32;80.61
79705;BME280;69940;53.120;8.764;2023-12-29T09:28:46;100411.00;;;10.31;80.52
79705;BME280;69940;53.120;8.764;2023-12-29T09:31:16;100415.00;;;10.29;80.50
79705;BME280;69940;53.120;8.764;2023-12-29T09:33:46;100416.00;;;10.26;80.58
79705;BME280;69940;53.120;8.764;2023-12-29T09:36:16;100418.00;;;10.24;80.44
79705;BME280;69940;53.120;8.764;2023-12-29T09:38:47;100416.00;;;10.21;80.52
79705;BME280;69940;53.120;8.764;2023-12-29T09:41:18;100414.00;;;10.19;80.41
79705;BME280;69940;53.120;8.764;2023-12-29T09:43:48;100410.00;;;10.17;80.18
79705;BME280;69940;53.120;8.764;2023-12-29T09:46:21;100410.00;;;10.17;79.97
79705;BME280;69940;53.120;8.764;2023-12-29T09:48:46;100410.00;;;10.18;79.60
79705;BME280;69940;53.120;8.764;2023-12-29T09:51:16;100408.00;;;10.18;79.34
79705;BME280;69940;53.120;8.764;2023-12-29T09:53:46;100406.00;;;10.20;78.95
79705;BME280;69940;53.120;8.764;2023-12-29T09:56:16;100404.00;;;10.22;78.82
79705;BME280;69940;53.120;8.764;2023-12-29T09:58:51;100402.00;;;10.24;78.69
79705;BME280;69940;53.120;8.764;2023-12-29T10:01:17;100399.00;;;10.28;78.52
79705;BME280;69940;53.120;8.764;2023-12-29T10:03:47;100396.00;;;10.32;78.45
79705;BME280;69940;53.120;8.764;2023-12-29T10:06:24;100394.00;;;10.37;78.38
79705;BME280;69940;53.120;8.764;2023-12-29T10:08:47;100394.00;;;10.42;78.23
79705;BME280;69940;53.120;8.764;2023-12-29T10:11:18;100392.00;;;10.46;78.07
79705;BME280;69940;53.120;8.764;2023-12-29T10:13:50;100392.00;;;10.51;78.18
79705;BME280;69940;53.120;8.764;2023-12-29T10:16:38;100392.00;;;10.54;78.32
79705;BME280;69940;53.120;8.764;2023-12-29T10:21:27;100391.00;;;10.58;79.02
79705;BME280;69940;53.120;8.764;2023-12-29T10:23:58;100392.00;;;10.59;79.37
79705;BME280;69940;53.120;8.764;2023-12-29T10:26:16;100395.00;;;10.59;79.40
79705;BME280;69940;53.120;8.764;2023-12-29T10:28:47;100396.00;;;10.58;78.84
79705;BME280;69940;53.120;8.764;2023-12-29T10:31:16;100398.00;;;10.55;79.30
79705;BME280;69940;53.120;8.764;2023-12-29T10:33:51;100396.00;;;10.51;79.22
79705;BME280;69940;53.120;8.764;2023-12-29T10:36:16;100399.00;;;10.46;79.72
79705;BME280;69940;53.120;8.764;2023-12-29T10:38:46;100400.00;;;10.41;79.87
79705;BME280;69940;53.120;8.764;2023-12-29T10:41:18;100396.00;;;10.34;80.08
79705;BME280;69940;53.120;8.764;2023-12-29T10:43:52;100396.00;;;10.27;80.68
79705;BME280;69940;53.120;8.764;2023-12-29T10:46:17;100392.00;;;10.21;80.51
79705;BME280;69940;53.120;8.764;2023-12-29T10:48:46;100386.00;;;10.15;80.40
79705;BME280;69940;53.120;8.764;2023-12-29T10:51:26;100381.00;;;10.10;80.36
79705;BME280;69940;53.120;8.764;2023-12-29T10:53:54;100380.00;;;10.07;80.35
79705;BME280;69940;53.120;8.764;2023-12-29T10:56:18;100377.00;;;10.05;80.58
79705;BME280;69940;53.120;8.764;2023-12-29T10:58:46;100375.00;;;10.04;80.56
79705;BME280;69940;53.120;8.764;2023-12-29T11:01:20;100373.00;;;10.04;80.80
79705;BME280;69940;53.120;8.764;2023-12-29T11:04:04;100376.00;;;10.04;80.73
79705;BME280;69940;53.120;8.764;2023-12-29T11:06:16;100379.00;;;10.04;80.67
79705;BME280;69940;53.120;8.764;2023-12-29T11:08:46;100382.00;;;10.05;80.70
79705;BME280;69940;53.120;8.764;2023-12-29T11:11:16;100386.00;;;10.07;80.64
79705;BME280;69940;53.120;8.764;2023-12-29T11:13:46;100390.00;;;10.09;80.58
79705;BME280;69940;53.120;8.764;2023-12-29T11:16:19;100391.00;;;10.09;80.50
79705;BME280;69940;53.120;8.764;2023-12-29T11:18:46;100390.00;;;10.09;80.58
79705;BME280;69940;53.120;8.764;2023-12-29T11:21:16;100389.00;;;10.08;80.87
79705;BME280;69940;53.120;8.764;2023-12-29T11:23:47;100392.00;;;10.08;81.01
79705;BME280;69940;53.120;8.764;2023-12-29T11:26:16;100389.00;;;10.08;81.13
79705;BME280;69940;53.120;8.764;2023-12-29T11:28:46;100386.00;;;10.08;81.36
79705;BME280;69940;53.120;8.764;2023-12-29T11:31:18;100382.00;;;10.09;81.37
79705;BME280;69940;53.120;8.764;2023-12-29T11:33:57;100381.00;;;10.10;81.47
79705;BME280;69940;53.120;8.764;2023-12-29T11:36:26;100380.00;;;10.13;81.49
79705;BME280;69940;53.120;8.764;2023-12-29T11:44:00;100368.00;;;10.23;81.57
79705;BME280;69940;53.120;8.764;2023-12-29T11:46:37;100367.00;;;10.26;81.51
79705;BME280;69940;53.120;8.764;2023-12-29T11:48:56;100368.00;;;10.29;81.48
79705;BME280;69940;53.120;8.764;2023-12-29T11:51:32;100370.00;;;10.32;81.47
79705;BME280;69940;53.120;8.764;2023-12-29T11:53:46;100370.00;;;10.34;81.35
79705;BME280;69940;53.120;8.764;2023-12-29T11:56:16;100368.00;;;10.38;81.06
79705;BME280;69940;53.120;8.764;2023-12-29T11:58:46;100364.00;;;10.42;80.73
79705;BME280;69940;53.120;8.764;2023-12-29T12:01:33;100359.00;;;10.45;80.18
79705;BME280;69940;53.120;8.764;2023-12-29T12:03:46;100356.00;;;10.48;79.82
79705;BME280;69940;53.120;8.764;2023-12-29T12:06:36;100353.00;;;10.49;79.78
79705;BME280;69940;53.120;8.764;2023-12-29T12:08:46;100348.00;;;10.50;79.59
79705;BME280;69940;53.120;8.764;2023-12-29T12:13:46;100347.00;;;10.50;79.11
79705;BME280;69940;53.120;8.764;2023-12-29T12:16:49;100344.00;;;10.48;78.40
79705;BME280;69940;53.120;8.764;2023-12-29T12:18:46;100344.00;;;10.47;78.28
79705;BME280;69940;53.120;8.764;2023-12-29T12:21:19;100341.00;;;10.45;78.18
79705;BME280;69940;53.120;8.764;2023-12-29T12:23:46;100337.00;;;10.43;78.02
79705;BME280;69940;53.120;8.764;2023-12-29T12:26:18;100335.00;;;10.41;77.94
79705;BME280;69940;53.120;8.764;2023-12-29T12:28:46;100335.00;;;10.40;77.71
79705;BME280;69940;53.120;8.764;2023-12-29T12:31:16;100336.00;;;10.39;77.66
79705;BME280;69940;53.120;8.764;2023-12-29T12:33:55;100339.00;;;10.38;77.74
79705;BME280;69940;53.120;8.764;2023-12-29T12:36:16;100342.00;;;10.38;77.73
79705;BME280;69940;53.120;8.764;2023-12-29T12:38:52;100345.00;;;10.37;77.61
79705;BME280;69940;53.120;8.764;2023-12-29T12:41:16;100345.00;;;10.36;77.39
79705;BME280;69940;53.120;8.764;2023-12-29T12:43:52;100348.00;;;10.35;77.10
79705;BME280;69940;53.120;8.764;2023-12-29T12:46:15;100352.00;;;10.34;77.01
79705;BME280;69940;53.120;8.764;2023-12-29T12:48:46;100355.00;;;10.33;76.87
79705;BME280;69940;53.120;8.764;2023-12-29T12:51:19;100359.00;;;10.32;76.71
79705;BME280;69940;53.120;8.764;2023-12-29T12:53:49;100362.00;;;10.32;76.90
79705;BME280;69940;53.120;8.764;2023-12-29T12:56:16;100364.00;;;10.31;76.93
79705;BME280;69940;53.120;8.764;2023-12-29T12:58:46;100366.00;;;10.30;76.58
79705;BME280;69940;53.120;8.764;2023-12-29T13:01:16;100364.00;;;10.30;76.56
79705;BME280;69940;53.120;8.764;2023-12-29T13:03:45;100368.00;;;10.30;76.64
79705;BME280;69940;53.120;8.764;2023-12-29T13:06:18;100370.00;;;10.30;76.64
79705;BME280;69940;53.120;8.764;2023-12-29T13:08:48;100370.00;;;10.31;76.90
79705;BME280;69940;53.120;8.764;2023-12-29T13:11:18;100372.00;;;10.31;76.98
79705;BME280;69940;53.120;8.764;2023-12-29T13:13:46;100373.00;;;10.32;77.08
79705;BME280;69940;53.120;8.764;2023-12-29T13:16:16;100373.00;;;10.33;77.32